Aeroporto :







RITROVATECI SU...

 
LOGIN :

Iscrizione | Disclaimer

   EN    FR    IT 

 









Sommario :    VFR   VFR Marginale   IFR   IFR Intensivo   IFR Molto Intensivo
Visibilità : 
Base nubi : 
>= 8 km
>= 3000ft
5 / 8 km
1000 / 3000 ft
1500m / 5 km
500 / 1000 ft
800 / 1500m
200 / 500 ft
< 800m
< 200 ft
Simboli :   Temporali  Nebbia  Neve Forte  Precipitazioni Forti  Vento > 20 kt






- Altitudine del aeroporto : 203 ft
- Codice IATA : YQY


CYQY - Sydney

ULTIMO METAR :
  • 171336Z 21003KT 3SM -SN FEW005 BKN031 OVC058 M01/M02 A3004 RMK SC2SC4SC2 SLP176

METARs OBSOLETI :
  • 171300Z 19003KT 5SM -SN BKN004 BKN031 OVC070 M01/M01 A3004 RMK SC5SC2AS1 SLP177
  • 171247Z 18004KT 3SM -SN BKN004 BKN028 OVC070 M01/M01 A3003 RMK SC5SC2AS1 SLP175
  • 171200Z 00000KT 1 1/2SM -SN BKN007 OVC028 M02/M02 A3004 RMK SC5SC3 /S05/ SLP176
  • 171146Z 00000KT 1 1/2SM -SN BKN009 OVC034 M02/M02 A3003 RMK SN4SC3SC1 SLP173
  • 171100Z 00000KT 1SM R06/P6000FT/U -SN OVC007 M01/M02 A3002 RMK SN5SC3 /S03/ SLP170
  • 171044Z 25003KT 1SM R06/P6000FT/N -SN OVC009 M01/M02 A3002 RMK SN6SC2 SLP171

TAF TAF CYQY
Valido dal 17 a 12 ore il 18 a 00 ore UTC


171139Z 1712/1724 VRB03KT 1SM -SN OVC006
TEMPO 1712/1717 6SM -SN OVC015
FM171700 30010KT P6SM BKN020
TEMPO 1717/1721 BKN025
FM172100 30010KT P6SM SKC RMK NXT FCST BY 171800Z



MetMap, La meteo Aeronautica in un colpo d'occhio ! - Copyright ORBIFLY Dicembre 2007 - Disclaimer

ORBIFLY MET'MAP TEAM :

Programmazione e sviluppo : Alexandra Zaïnal
Concezione : Baudouin d'Aumeries
Aiuto per la programmazione : Marc-Olivier Méhu
Supporto tecnico e logistico : Manuel Goepfert
Aiuto per la traduzione : Arnaldo La Scala

Contatto : metmap@orbifly.com




FONTI E CREDITI :

   NOAA